sensor_id;sensor_type;location;lat;lon;timestamp;pressure;altitude;pressure_sealevel;temperature;humidity
63339;BME280;47485;51.378;-1.342;2023-01-31T00:01:16;101328.65;;;4.82;29.29
63339;BME280;47485;51.378;-1.342;2023-01-31T00:03:44;101337.68;;;4.54;30.71
63339;BME280;47485;51.378;-1.342;2023-01-31T00:06:14;101326.69;;;3.34;32.47
63339;BME280;47485;51.378;-1.342;2023-01-31T00:08:42;101317.33;;;5.15;30.95
63339;BME280;47485;51.378;-1.342;2023-01-31T00:11:10;101313.89;;;3.87;32.05
63339;BME280;47485;51.378;-1.342;2023-01-31T00:13:37;101317.02;;;3.60;32.76
63339;BME280;47485;51.378;-1.342;2023-01-31T00:16:05;101318.63;;;5.24;33.33
63339;BME280;47485;51.378;-1.342;2023-01-31T00:18:32;101312.31;;;4.04;34.39
63339;BME280;47485;51.378;-1.342;2023-01-31T00:21:04;101312.06;;;2.62;35.11
63339;BME280;47485;51.378;-1.342;2023-01-31T00:23:32;101315.46;;;4.23;35.07
63339;BME280;47485;51.378;-1.342;2023-01-31T00:26:07;101320.18;;;1.35;38.73
63339;BME280;47485;51.378;-1.342;2023-01-31T00:28:34;101320.69;;;0.56;42.35
63339;BME280;47485;51.378;-1.342;2023-01-31T00:31:01;101310.67;;;-0.12;43.70
63339;BME280;47485;51.378;-1.342;2023-01-31T00:33:28;101300.85;;;0.86;41.65
63339;BME280;47485;51.378;-1.342;2023-01-31T00:35:54;101300.73;;;1.88;40.47
63339;BME280;47485;51.378;-1.342;2023-01-31T00:38:21;101294.29;;;1.80;41.08
63339;BME280;47485;51.378;-1.342;2023-01-31T00:40:51;101291.43;;;0.36;41.57
63339;BME280;47485;51.378;-1.342;2023-01-31T00:43:17;101289.95;;;0.86;40.61
63339;BME280;47485;51.378;-1.342;2023-01-31T00:45:44;101287.14;;;1.07;41.67
63339;BME280;47485;51.378;-1.342;2023-01-31T00:48:11;101290.84;;;-0.72;44.45
63339;BME280;47485;51.378;-1.342;2023-01-31T00:50:38;101298.63;;;0.45;44.87
63339;BME280;47485;51.378;-1.342;2023-01-31T00:53:05;101299.00;;;-0.40;44.98
63339;BME280;47485;51.378;-1.342;2023-01-31T00:55:32;101292.21;;;-0.14;44.63
63339;BME280;47485;51.378;-1.342;2023-01-31T00:57:58;101286.59;;;0.71;43.48
63339;BME280;47485;51.378;-1.342;2023-01-31T01:00:25;101279.71;;;0.43;42.95
63339;BME280;47485;51.378;-1.342;2023-01-31T01:02:52;101285.53;;;0.46;42.42
63339;BME280;47485;51.378;-1.342;2023-01-31T01:05:19;101289.52;;;0.13;44.43
63339;BME280;47485;51.378;-1.342;2023-01-31T01:07:45;101290.73;;;-0.11;45.44
63339;BME280;47485;51.378;-1.342;2023-01-31T01:10:13;101284.06;;;-1.36;46.04
63339;BME280;47485;51.378;-1.342;2023-01-31T01:12:40;101276.65;;;-0.49;44.33
63339;BME280;47485;51.378;-1.342;2023-01-31T01:15:07;101278.75;;;0.29;44.11
63339;BME280;47485;51.378;-1.342;2023-01-31T01:17:34;101275.40;;;0.22;43.58
63339;BME280;47485;51.378;-1.342;2023-01-31T01:20:01;101273.24;;;0.14;43.88
63339;BME280;47485;51.378;-1.342;2023-01-31T01:22:29;101273.83;;;-1.15;47.51
63339;BME280;47485;51.378;-1.342;2023-01-31T01:24:56;101273.50;;;-0.64;47.20
63339;BME280;47485;51.378;-1.342;2023-01-31T01:27:23;101265.08;;;1.01;46.54
63339;BME280;47485;51.378;-1.342;2023-01-31T01:29:50;101264.44;;;0.17;45.02
63339;BME280;47485;51.378;-1.342;2023-01-31T01:32:17;101254.71;;;0.81;44.92
63339;BME280;47485;51.378;-1.342;2023-01-31T01:34:44;101257.40;;;0.99;44.69
63339;BME280;47485;51.378;-1.342;2023-01-31T01:37:10;101262.93;;;-1.00;46.51
63339;BME280;47485;51.378;-1.342;2023-01-31T01:39:37;101263.38;;;-0.62;48.26
63339;BME280;47485;51.378;-1.342;2023-01-31T01:42:05;101271.82;;;-1.44;48.81
63339;BME280;47485;51.378;-1.342;2023-01-31T01:44:44;101266.18;;;-2.52;50.86
63339;BME280;47485;51.378;-1.342;2023-01-31T01:47:14;101257.96;;;-0.74;49.44
63339;BME280;47485;51.378;-1.342;2023-01-31T01:49:44;101253.97;;;0.06;47.54
63339;BME280;47485;51.378;-1.342;2023-01-31T01:52:15;101246.68;;;-0.33;45.91
63339;BME280;47485;51.378;-1.342;2023-01-31T01:54:45;101252.75;;;-0.90;46.50
63339;BME280;47485;51.378;-1.342;2023-01-31T01:57:17;101257.69;;;-0.85;48.72
63339;BME280;47485;51.378;-1.342;2023-01-31T01:59:50;101252.55;;;-0.37;48.44
63339;BME280;47485;51.378;-1.342;2023-01-31T02:02:19;101253.81;;;-0.75;46.28
63339;BME280;47485;51.378;-1.342;2023-01-31T02:04:48;101251.16;;;-0.07;44.14
63339;BME280;47485;51.378;-1.342;2023-01-31T02:07:17;101247.23;;;-0.51;44.91
63339;BME280;47485;51.378;-1.342;2023-01-31T02:09:47;101241.42;;;-0.01;43.19
63339;BME280;47485;51.378;-1.342;2023-01-31T02:12:16;101240.74;;;0.34;44.14
63339;BME280;47485;51.378;-1.342;2023-01-31T02:14:44;101236.89;;;0.73;42.25
63339;BME280;47485;51.378;-1.342;2023-01-31T02:17:14;101240.87;;;0.89;44.98
63339;BME280;47485;51.378;-1.342;2023-01-31T02:19:50;101236.32;;;-0.21;44.74
63339;BME280;47485;51.378;-1.342;2023-01-31T02:22:25;101232.44;;;0.52;44.55
63339;BME280;47485;51.378;-1.342;2023-01-31T02:26:24;101239.47;;;0.14;46.60
63339;BME280;47485;51.378;-1.342;2023-01-31T02:29:20;101230.14;;;-0.92;47.36
63339;BME280;47485;51.378;-1.342;2023-01-31T02:32:21;101237.65;;;-1.89;49.76
63339;BME280;47485;51.378;-1.342;2023-01-31T02:35:04;101241.24;;;-1.60;51.23
63339;BME280;47485;51.378;-1.342;2023-01-31T02:37:42;101234.88;;;-0.56;51.29
63339;BME280;47485;51.378;-1.342;2023-01-31T02:40:16;101237.53;;;-2.33;50.81
63339;BME280;47485;51.378;-1.342;2023-01-31T02:42:53;101240.03;;;-2.17;50.14
63339;BME280;47485;51.378;-1.342;2023-01-31T02:45:28;101224.43;;;0.45;47.54
63339;BME280;47485;51.378;-1.342;2023-01-31T02:48:06;101219.20;;;-0.80;47.41
63339;BME280;47485;51.378;-1.342;2023-01-31T02:50:40;101227.14;;;-0.65;47.10
63339;BME280;47485;51.378;-1.342;2023-01-31T02:53:14;101233.29;;;-0.04;49.94
63339;BME280;47485;51.378;-1.342;2023-01-31T02:55:47;101231.62;;;0.00;50.24
63339;BME280;47485;51.378;-1.342;2023-01-31T02:58:17;101238.39;;;-0.55;50.86
63339;BME280;47485;51.378;-1.342;2023-01-31T03:00:46;101230.20;;;-1.20;49.19
63339;BME280;47485;51.378;-1.342;2023-01-31T03:03:19;101229.78;;;-1.86;50.02
63339;BME280;47485;51.378;-1.342;2023-01-31T03:08:03;101231.05;;;-0.76;50.72
63339;BME280;47485;51.378;-1.342;2023-01-31T03:10:50;101217.43;;;-1.08;49.30
63339;BME280;47485;51.378;-1.342;2023-01-31T03:13:36;101210.56;;;0.39;48.67
63339;BME280;47485;51.378;-1.342;2023-01-31T03:16:17;101207.10;;;-0.40;49.60
63339;BME280;47485;51.378;-1.342;2023-01-31T03:18:54;101212.44;;;-1.43;50.69
63339;BME280;47485;51.378;-1.342;2023-01-31T03:21:27;101205.22;;;-0.49;50.42
63339;BME280;47485;51.378;-1.342;2023-01-31T03:23:58;101213.15;;;-0.51;51.23
63339;BME280;47485;51.378;-1.342;2023-01-31T03:26:26;101201.55;;;-1.56;52.05
63339;BME280;47485;51.378;-1.342;2023-01-31T03:28:54;101192.82;;;-0.38;49.74
63339;BME280;47485;51.378;-1.342;2023-01-31T03:31:25;101189.39;;;-1.08;49.22
63339;BME280;47485;51.378;-1.342;2023-01-31T03:33:57;101187.93;;;-0.20;52.57
63339;BME280;47485;51.378;-1.342;2023-01-31T03:36:29;101191.89;;;-1.11;52.67
63339;BME280;47485;51.378;-1.342;2023-01-31T03:39:05;101188.77;;;-1.09;53.32
63339;BME280;47485;51.378;-1.342;2023-01-31T03:41:42;101177.95;;;-1.05;51.19
63339;BME280;47485;51.378;-1.342;2023-01-31T03:44:16;101174.53;;;0.22;49.91
63339;BME280;47485;51.378;-1.342;2023-01-31T03:46:49;101171.86;;;-0.61;50.29
63339;BME280;47485;51.378;-1.342;2023-01-31T03:49:20;101167.39;;;-0.50;49.29
63339;BME280;47485;51.378;-1.342;2023-01-31T03:51:52;101169.66;;;-0.60;50.73
63339;BME280;47485;51.378;-1.342;2023-01-31T03:54:24;101184.94;;;-0.79;50.96
63339;BME280;47485;51.378;-1.342;2023-01-31T03:56:56;101173.99;;;-0.36;50.64
63339;BME280;47485;51.378;-1.342;2023-01-31T03:59:28;101167.18;;;-0.14;48.83
63339;BME280;47485;51.378;-1.342;2023-01-31T04:01:58;101171.71;;;-0.64;49.34
63339;BME280;47485;51.378;-1.342;2023-01-31T04:04:30;101159.90;;;-0.40;47.93
63339;BME280;47485;51.378;-1.342;2023-01-31T04:06:57;101165.58;;;-0.81;49.55
63339;BME280;47485;51.378;-1.342;2023-01-31T04:09:25;101161.73;;;0.16;47.45
63339;BME280;47485;51.378;-1.342;2023-01-31T04:11:53;101162.86;;;0.53;47.69
63339;BME280;47485;51.378;-1.342;2023-01-31T04:14:20;101169.17;;;-0.07;47.71
63339;BME280;47485;51.378;-1.342;2023-01-31T04:16:48;101167.55;;;0.35;47.84
63339;BME280;47485;51.378;-1.342;2023-01-31T04:19:16;101171.18;;;-0.12;49.73
63339;BME280;47485;51.378;-1.342;2023-01-31T04:21:43;101164.13;;;-0.43;46.65
63339;BME280;47485;51.378;-1.342;2023-01-31T04:24:09;101165.18;;;2.15;45.21
63339;BME280;47485;51.378;-1.342;2023-01-31T04:26:37;101176.82;;;0.62;45.23
63339;BME280;47485;51.378;-1.342;2023-01-31T04:29:03;101182.72;;;0.18;44.92
63339;BME280;47485;51.378;-1.342;2023-01-31T04:31:30;101187.05;;;2.03;45.15
63339;BME280;47485;51.378;-1.342;2023-01-31T04:33:57;101183.44;;;0.69;45.80
63339;BME280;47485;51.378;-1.342;2023-01-31T04:36:24;101179.57;;;1.34;44.98
63339;BME280;47485;51.378;-1.342;2023-01-31T04:38:51;101175.42;;;0.43;47.19
63339;BME280;47485;51.378;-1.342;2023-01-31T04:41:18;101170.39;;;1.58;44.92
63339;BME280;47485;51.378;-1.342;2023-01-31T04:43:45;101160.06;;;3.05;42.96
63339;BME280;47485;51.378;-1.342;2023-01-31T04:46:12;101152.14;;;2.03;42.18
63339;BME280;47485;51.378;-1.342;2023-01-31T04:48:38;101153.96;;;2.48;41.51
63339;BME280;47485;51.378;-1.342;2023-01-31T04:51:05;101148.43;;;2.06;42.59
63339;BME280;47485;51.378;-1.342;2023-01-31T04:53:32;101154.59;;;2.38;41.99
63339;BME280;47485;51.378;-1.342;2023-01-31T04:55:59;101154.93;;;2.06;43.08
63339;BME280;47485;51.378;-1.342;2023-01-31T04:58:25;101162.81;;;1.95;43.34
63339;BME280;47485;51.378;-1.342;2023-01-31T05:00:53;101165.35;;;1.04;44.90
63339;BME280;47485;51.378;-1.342;2023-01-31T05:03:19;101162.10;;;1.70;45.08
63339;BME280;47485;51.378;-1.342;2023-01-31T05:05:46;101167.73;;;0.38;45.38
63339;BME280;47485;51.378;-1.342;2023-01-31T05:08:13;101162.03;;;1.15;43.80
63339;BME280;47485;51.378;-1.342;2023-01-31T05:10:40;101166.30;;;-0.24;43.82
63339;BME280;47485;51.378;-1.342;2023-01-31T05:13:07;101164.53;;;1.71;42.70
63339;BME280;47485;51.378;-1.342;2023-01-31T05:15:34;101172.67;;;1.35;45.76
63339;BME280;47485;51.378;-1.342;2023-01-31T05:18:02;101171.04;;;1.56;43.73
63339;BME280;47485;51.378;-1.342;2023-01-31T05:20:29;101165.70;;;2.26;42.70
63339;BME280;47485;51.378;-1.342;2023-01-31T05:22:56;101157.26;;;1.06;44.74
63339;BME280;47485;51.378;-1.342;2023-01-31T05:25:23;101150.41;;;0.98;45.77
63339;BME280;47485;51.378;-1.342;2023-01-31T05:27:50;101142.98;;;1.95;45.75
63339;BME280;47485;51.378;-1.342;2023-01-31T05:30:18;101143.69;;;0.90;45.20
63339;BME280;47485;51.378;-1.342;2023-01-31T05:32:46;101147.89;;;-0.05;47.00
63339;BME280;47485;51.378;-1.342;2023-01-31T05:35:12;101151.26;;;0.42;47.18
63339;BME280;47485;51.378;-1.342;2023-01-31T05:37:39;101137.51;;;-0.44;48.83
63339;BME280;47485;51.378;-1.342;2023-01-31T05:40:07;101137.09;;;-0.45;51.26
63339;BME280;47485;51.378;-1.342;2023-01-31T05:42:34;101122.65;;;-0.96;50.68
63339;BME280;47485;51.378;-1.342;2023-01-31T05:45:02;101116.86;;;0.11;51.39
63339;BME280;47485;51.378;-1.342;2023-01-31T05:47:29;101104.70;;;-0.22;48.52
63339;BME280;47485;51.378;-1.342;2023-01-31T05:49:56;101106.05;;;0.72;47.34
63339;BME280;47485;51.378;-1.342;2023-01-31T05:52:23;101111.00;;;1.99;44.97
63339;BME280;47485;51.378;-1.342;2023-01-31T05:54:50;101101.52;;;1.99;45.48
63339;BME280;47485;51.378;-1.342;2023-01-31T05:57:17;101101.52;;;0.38;49.77
63339;BME280;47485;51.378;-1.342;2023-01-31T05:59:44;101102.56;;;-0.63;49.52
63339;BME280;47485;51.378;-1.342;2023-01-31T06:02:11;101105.17;;;-0.56;52.42
63339;BME280;47485;51.378;-1.342;2023-01-31T06:04:37;101101.39;;;0.64;47.63
63339;BME280;47485;51.378;-1.342;2023-01-31T06:07:04;101095.93;;;2.51;48.01
63339;BME280;47485;51.378;-1.342;2023-01-31T06:09:31;101092.22;;;-1.29;50.16
63339;BME280;47485;51.378;-1.342;2023-01-31T06:11:58;101089.79;;;-0.85;47.02
63339;BME280;47485;51.378;-1.342;2023-01-31T06:14:25;101096.22;;;0.03;47.84
63339;BME280;47485;51.378;-1.342;2023-01-31T06:16:52;101094.35;;;-0.72;48.22
63339;BME280;47485;51.378;-1.342;2023-01-31T06:19:18;101098.41;;;0.37;47.77
63339;BME280;47485;51.378;-1.342;2023-01-31T06:21:46;101093.60;;;1.21;44.27
63339;BME280;47485;51.378;-1.342;2023-01-31T06:24:13;101089.46;;;0.04;45.79
63339;BME280;47485;51.378;-1.342;2023-01-31T06:26:40;101091.36;;;1.73;45.87
63339;BME280;47485;51.378;-1.342;2023-01-31T06:29:07;101085.24;;;0.99;45.37
63339;BME280;47485;51.378;-1.342;2023-01-31T06:31:33;101082.85;;;0.85;47.59
63339;BME280;47485;51.378;-1.342;2023-01-31T06:34:00;101083.92;;;1.28;45.39
63339;BME280;47485;51.378;-1.342;2023-01-31T06:36:27;101070.64;;;3.51;42.57
63339;BME280;47485;51.378;-1.342;2023-01-31T06:38:54;101068.01;;;2.11;42.90
63339;BME280;47485;51.378;-1.342;2023-01-31T06:41:21;101072.84;;;0.73;43.86
63339;BME280;47485;51.378;-1.342;2023-01-31T06:43:48;101066.30;;;1.43;42.66
63339;BME280;47485;51.378;-1.342;2023-01-31T06:46:15;101071.59;;;0.96;43.77
63339;BME280;47485;51.378;-1.342;2023-01-31T06:48:42;101068.25;;;1.14;47.44
63339;BME280;47485;51.378;-1.342;2023-01-31T06:51:09;101058.80;;;1.05;47.24
63339;BME280;47485;51.378;-1.342;2023-01-31T06:53:36;101061.08;;;1.62;47.04
63339;BME280;47485;51.378;-1.342;2023-01-31T06:56:04;101057.72;;;0.48;48.71
63339;BME280;47485;51.378;-1.342;2023-01-31T06:58:31;101050.83;;;0.65;50.77
63339;BME280;47485;51.378;-1.342;2023-01-31T07:01:03;101053.19;;;0.65;50.56
63339;BME280;47485;51.378;-1.342;2023-01-31T07:03:30;101052.15;;;-0.12;52.43
63339;BME280;47485;51.378;-1.342;2023-01-31T07:05:57;101045.22;;;0.09;52.48
63339;BME280;47485;51.378;-1.342;2023-01-31T07:08:24;101042.47;;;-0.84;50.77
63339;BME280;47485;51.378;-1.342;2023-01-31T07:10:50;101049.15;;;-0.60;55.28
63339;BME280;47485;51.378;-1.342;2023-01-31T07:13:17;101041.93;;;0.34;53.37
63339;BME280;47485;51.378;-1.342;2023-01-31T07:15:45;101057.45;;;-1.84;57.04
63339;BME280;47485;51.378;-1.342;2023-01-31T07:18:11;101054.44;;;-1.32;54.73
63339;BME280;47485;51.378;-1.342;2023-01-31T07:20:38;101062.49;;;-0.87;56.52
63339;BME280;47485;51.378;-1.342;2023-01-31T07:23:05;101054.69;;;0.09;54.22
63339;BME280;47485;51.378;-1.342;2023-01-31T07:25:32;101057.31;;;-1.71;56.54
63339;BME280;47485;51.378;-1.342;2023-01-31T07:27:59;101053.88;;;-0.05;56.63
63339;BME280;47485;51.378;-1.342;2023-01-31T07:30:26;101050.68;;;-1.12;55.13
63339;BME280;47485;51.378;-1.342;2023-01-31T07:32:53;101041.78;;;0.04;51.79
63339;BME280;47485;51.378;-1.342;2023-01-31T07:35:20;101048.07;;;-0.21;55.19
63339;BME280;47485;51.378;-1.342;2023-01-31T07:37:50;101049.96;;;-0.72;54.62
63339;BME280;47485;51.378;-1.342;2023-01-31T07:40:17;101050.80;;;-1.34;54.96
63339;BME280;47485;51.378;-1.342;2023-01-31T07:42:44;101059.96;;;0.31;54.88
63339;BME280;47485;51.378;-1.342;2023-01-31T07:45:12;101069.89;;;-0.20;55.01
63339;BME280;47485;51.378;-1.342;2023-01-31T07:47:39;101076.97;;;-0.35;53.61
63339;BME280;47485;51.378;-1.342;2023-01-31T07:50:07;101073.88;;;0.42;54.10
63339;BME280;47485;51.378;-1.342;2023-01-31T07:52:34;101075.97;;;-0.84;55.43
63339;BME280;47485;51.378;-1.342;2023-01-31T07:55:01;101077.01;;;1.24;53.17
63339;BME280;47485;51.378;-1.342;2023-01-31T07:57:29;101071.91;;;0.65;51.75
63339;BME280;47485;51.378;-1.342;2023-01-31T07:59:56;101075.11;;;0.25;54.84
63339;BME280;47485;51.378;-1.342;2023-01-31T08:02:22;101066.10;;;-0.40;55.20
63339;BME280;47485;51.378;-1.342;2023-01-31T08:04:49;101069.62;;;-1.29;56.17
63339;BME280;47485;51.378;-1.342;2023-01-31T08:07:21;101070.30;;;0.39;55.01
63339;BME280;47485;51.378;-1.342;2023-01-31T08:09:48;101066.57;;;0.88;52.91
63339;BME280;47485;51.378;-1.342;2023-01-31T08:12:16;101048.60;;;-0.09;50.65
63339;BME280;47485;51.378;-1.342;2023-01-31T08:14:43;101054.39;;;1.71;50.14
63339;BME280;47485;51.378;-1.342;2023-01-31T08:17:10;101040.86;;;0.99;50.06
63339;BME280;47485;51.378;-1.342;2023-01-31T08:19:37;101044.67;;;0.99;51.01
63339;BME280;47485;51.378;-1.342;2023-01-31T08:22:04;101035.31;;;0.21;52.82
63339;BME280;47485;51.378;-1.342;2023-01-31T08:24:31;101043.61;;;0.34;53.76
63339;BME280;47485;51.378;-1.342;2023-01-31T08:26:59;101027.80;;;0.56;52.66
63339;BME280;47485;51.378;-1.342;2023-01-31T08:29:26;101032.16;;;0.95;53.10
63339;BME280;47485;51.378;-1.342;2023-01-31T08:31:52;101041.26;;;2.10;50.03
63339;BME280;47485;51.378;-1.342;2023-01-31T08:34:19;101044.14;;;1.31;53.50
63339;BME280;47485;51.378;-1.342;2023-01-31T08:36:46;101038.48;;;0.70;53.31
63339;BME280;47485;51.378;-1.342;2023-01-31T08:39:14;101036.47;;;0.84;53.15
63339;BME280;47485;51.378;-1.342;2023-01-31T08:41:41;101035.61;;;0.35;54.96
63339;BME280;47485;51.378;-1.342;2023-01-31T08:44:08;101042.63;;;0.15;55.32
63339;BME280;47485;51.378;-1.342;2023-01-31T08:46:36;101043.96;;;-0.26;54.95
63339;BME280;47485;51.378;-1.342;2023-01-31T08:49:05;101037.35;;;-0.31;54.11
63339;BME280;47485;51.378;-1.342;2023-01-31T08:51:32;101038.23;;;1.31;53.70
63339;BME280;47485;51.378;-1.342;2023-01-31T08:53:59;101046.25;;;-0.26;52.30
63339;BME280;47485;51.378;-1.342;2023-01-31T08:56:26;101034.83;;;0.86;52.16
63339;BME280;47485;51.378;-1.342;2023-01-31T08:58:53;101033.70;;;1.23;52.78
63339;BME280;47485;51.378;-1.342;2023-01-31T09:01:21;101030.08;;;1.25;53.80
63339;BME280;47485;51.378;-1.342;2023-01-31T09:03:48;101026.56;;;1.02;54.94
63339;BME280;47485;51.378;-1.342;2023-01-31T09:06:17;101024.86;;;0.81;55.65
63339;BME280;47485;51.378;-1.342;2023-01-31T09:08:45;101025.43;;;0.51;56.52
63339;BME280;47485;51.378;-1.342;2023-01-31T09:11:12;101017.12;;;0.90;56.80
63339;BME280;47485;51.378;-1.342;2023-01-31T09:13:40;101014.25;;;1.58;55.13
63339;BME280;47485;51.378;-1.342;2023-01-31T09:16:08;101020.78;;;1.43;55.98
63339;BME280;47485;51.378;-1.342;2023-01-31T09:18:37;101020.94;;;1.15;56.85
63339;BME280;47485;51.378;-1.342;2023-01-31T09:21:04;101020.93;;;0.67;56.01
63339;BME280;47485;51.378;-1.342;2023-01-31T09:23:31;101020.17;;;1.35;55.20
63339;BME280;47485;51.378;-1.342;2023-01-31T09:25:58;101021.67;;;1.64;56.34
63339;BME280;47485;51.378;-1.342;2023-01-31T09:28:25;101015.00;;;1.04;52.67
63339;BME280;47485;51.378;-1.342;2023-01-31T09:30:51;101026.18;;;1.47;54.78
63339;BME280;47485;51.378;-1.342;2023-01-31T09:33:19;101025.46;;;1.74;54.64
63339;BME280;47485;51.378;-1.342;2023-01-31T09:35:55;101028.57;;;1.78;54.15
63339;BME280;47485;51.378;-1.342;2023-01-31T09:38:22;101032.91;;;2.59;52.60
63339;BME280;47485;51.378;-1.342;2023-01-31T09:40:50;101044.54;;;0.99;53.38
63339;BME280;47485;51.378;-1.342;2023-01-31T09:43:18;101048.95;;;1.56;53.45
63339;BME280;47485;51.378;-1.342;2023-01-31T09:45:47;101061.95;;;0.83;56.19
63339;BME280;47485;51.378;-1.342;2023-01-31T09:48:19;101054.94;;;0.26;55.50
63339;BME280;47485;51.378;-1.342;2023-01-31T09:50:50;101066.91;;;2.13;55.46
63339;BME280;47485;51.378;-1.342;2023-01-31T09:53:19;101053.41;;;1.58;55.30
63339;BME280;47485;51.378;-1.342;2023-01-31T09:55:52;101065.95;;;2.59;54.49
63339;BME280;47485;51.378;-1.342;2023-01-31T09:58:27;101084.51;;;1.51;54.50
63339;BME280;47485;51.378;-1.342;2023-01-31T10:01:05;101094.65;;;1.50;53.13
63339;BME280;47485;51.378;-1.342;2023-01-31T10:03:45;101090.07;;;1.60;53.37
63339;BME280;47485;51.378;-1.342;2023-01-31T10:06:20;101085.20;;;2.72;52.59
63339;BME280;47485;51.378;-1.342;2023-01-31T10:08:53;101091.02;;;2.21;51.78
63339;BME280;47485;51.378;-1.342;2023-01-31T10:11:28;101082.01;;;3.22;49.06
63339;BME280;47485;51.378;-1.342;2023-01-31T10:14:00;101087.13;;;2.27;51.70
63339;BME280;47485;51.378;-1.342;2023-01-31T10:16:34;101074.08;;;3.99;50.04
63339;BME280;47485;51.378;-1.342;2023-01-31T10:19:06;101073.75;;;1.99;51.48
63339;BME280;47485;51.378;-1.342;2023-01-31T10:21:39;101071.92;;;3.17;49.89
63339;BME280;47485;51.378;-1.342;2023-01-31T10:24:13;101072.61;;;3.06;49.22
63339;BME280;47485;51.378;-1.342;2023-01-31T10:26:43;101071.66;;;2.65;50.26
63339;BME280;47485;51.378;-1.342;2023-01-31T10:29:18;101070.49;;;2.96;49.45
63339;BME280;47485;51.378;-1.342;2023-01-31T10:31:51;101070.07;;;3.04;50.65
63339;BME280;47485;51.378;-1.342;2023-01-31T10:34:24;101074.97;;;2.56;48.94
63339;BME280;47485;51.378;-1.342;2023-01-31T10:36:56;101075.40;;;2.98;48.29
63339;BME280;47485;51.378;-1.342;2023-01-31T10:39:28;101076.85;;;4.75;48.83
63339;BME280;47485;51.378;-1.342;2023-01-31T10:42:19;101075.13;;;4.08;49.06
63339;BME280;47485;51.378;-1.342;2023-01-31T10:44:51;101074.81;;;2.50;51.24
63339;BME280;47485;51.378;-1.342;2023-01-31T10:47:21;101070.11;;;1.87;50.36
63339;BME280;47485;51.378;-1.342;2023-01-31T10:49:50;101068.86;;;4.76;48.47
63339;BME280;47485;51.378;-1.342;2023-01-31T10:52:29;101066.50;;;3.91;50.06
63339;BME280;47485;51.378;-1.342;2023-01-31T10:55:06;101066.67;;;3.00;52.99
63339;BME280;47485;51.378;-1.342;2023-01-31T10:57:36;101075.36;;;3.11;51.88
63339;BME280;47485;51.378;-1.342;2023-01-31T11:00:04;101077.28;;;3.97;51.73
63339;BME280;47485;51.378;-1.342;2023-01-31T11:02:32;101079.99;;;3.27;51.61
63339;BME280;47485;51.378;-1.342;2023-01-31T11:04:59;101083.76;;;2.65;52.47
63339;BME280;47485;51.378;-1.342;2023-01-31T11:07:28;101068.73;;;2.16;52.10
63339;BME280;47485;51.378;-1.342;2023-01-31T11:09:56;101067.15;;;3.51;51.17
63339;BME280;47485;51.378;-1.342;2023-01-31T11:12:39;101067.70;;;3.63;50.35
63339;BME280;47485;51.378;-1.342;2023-01-31T11:15:15;101072.55;;;3.88;47.16
63339;BME280;47485;51.378;-1.342;2023-01-31T11:17:44;101067.88;;;4.35;47.97
63339;BME280;47485;51.378;-1.342;2023-01-31T11:20:21;101068.28;;;3.34;49.41
63339;BME280;47485;51.378;-1.342;2023-01-31T11:22:50;101058.44;;;3.99;48.35
63339;BME280;47485;51.378;-1.342;2023-01-31T11:25:19;101070.57;;;4.17;49.04
63339;BME280;47485;51.378;-1.342;2023-01-31T11:27:48;101068.21;;;3.35;50.29
63339;BME280;47485;51.378;-1.342;2023-01-31T11:30:22;101066.87;;;3.40;48.99
63339;BME280;47485;51.378;-1.342;2023-01-31T11:32:51;101062.28;;;4.58;48.65
63339;BME280;47485;51.378;-1.342;2023-01-31T11:35:25;101063.42;;;2.87;50.35
63339;BME280;47485;51.378;-1.342;2023-01-31T11:37:54;101057.85;;;3.04;49.91
63339;BME280;47485;51.378;-1.342;2023-01-31T11:40:27;101055.31;;;4.15;47.48
63339;BME280;47485;51.378;-1.342;2023-01-31T11:42:55;101050.82;;;4.27;48.17
63339;BME280;47485;51.378;-1.342;2023-01-31T11:45:24;101044.21;;;3.90;47.47
63339;BME280;47485;51.378;-1.342;2023-01-31T11:47:53;101042.55;;;3.78;49.56
63339;BME280;47485;51.378;-1.342;2023-01-31T11:50:23;101036.27;;;2.61;48.44
63339;BME280;47485;51.378;-1.342;2023-01-31T11:52:54;101032.11;;;3.76;48.27
63339;BME280;47485;51.378;-1.342;2023-01-31T11:55:22;101035.85;;;4.85;49.22
63339;BME280;47485;51.378;-1.342;2023-01-31T11:57:54;101034.26;;;3.69;48.73
63339;BME280;47485;51.378;-1.342;2023-01-31T12:00:24;101021.14;;;2.42;50.99
63339;BME280;47485;51.378;-1.342;2023-01-31T12:02:58;101021.93;;;1.78;50.47
63339;BME280;47485;51.378;-1.342;2023-01-31T12:05:34;101019.55;;;3.48;49.34
63339;BME280;47485;51.378;-1.342;2023-01-31T12:08:02;101020.66;;;2.61;49.90
63339;BME280;47485;51.378;-1.342;2023-01-31T12:10:32;101023.75;;;3.98;49.65
63339;BME280;47485;51.378;-1.342;2023-01-31T12:13:02;101027.18;;;3.05;48.22
63339;BME280;47485;51.378;-1.342;2023-01-31T12:15:29;101029.61;;;3.05;50.00
63339;BME280;47485;51.378;-1.342;2023-01-31T12:17:57;101018.23;;;3.49;48.70
63339;BME280;47485;51.378;-1.342;2023-01-31T12:20:34;101017.22;;;4.73;48.29
63339;BME280;47485;51.378;-1.342;2023-01-31T12:23:15;101012.81;;;4.41;47.60
63339;BME280;47485;51.378;-1.342;2023-01-31T12:25:55;101012.18;;;3.43;47.68
63339;BME280;47485;51.378;-1.342;2023-01-31T12:28:34;101020.61;;;4.51;46.75
63339;BME280;47485;51.378;-1.342;2023-01-31T12:31:16;101017.01;;;4.45;45.53
63339;BME280;47485;51.378;-1.342;2023-01-31T12:33:57;101018.39;;;3.23;48.25
63339;BME280;47485;51.378;-1.342;2023-01-31T12:36:37;101012.74;;;3.16;47.99
63339;BME280;47485;51.378;-1.342;2023-01-31T12:39:17;101010.77;;;4.61;46.08
63339;BME280;47485;51.378;-1.342;2023-01-31T12:41:58;101004.81;;;2.33;46.12
63339;BME280;47485;51.378;-1.342;2023-01-31T12:44:41;101006.63;;;3.97;45.86
63339;BME280;47485;51.378;-1.342;2023-01-31T12:47:56;101010.37;;;2.18;48.22
63339;BME280;47485;51.378;-1.342;2023-01-31T12:50:29;101015.15;;;2.53;47.58
63339;BME280;47485;51.378;-1.342;2023-01-31T12:53:17;101021.34;;;3.94;46.98
63339;BME280;47485;51.378;-1.342;2023-01-31T12:55:52;101027.44;;;3.65;46.47
63339;BME280;47485;51.378;-1.342;2023-01-31T12:58:36;101034.45;;;3.44;46.78
63339;BME280;47485;51.378;-1.342;2023-01-31T13:01:10;101034.16;;;3.10;47.79
63339;BME280;47485;51.378;-1.342;2023-01-31T13:04:25;101028.48;;;2.61;47.46
63339;BME280;47485;51.378;-1.342;2023-01-31T13:06:57;101025.65;;;3.54;47.60